sensor_id;sensor_type;location;lat;lon;timestamp;P1;durP1;ratioP1;P2;durP2;ratioP2
73693;SDS011;61997;53.974;11.670;2022-07-26T00:02:18;8.30;;;4.05;;
73693;SDS011;61997;53.974;11.670;2022-07-26T00:04:43;6.10;;;3.95;;
73693;SDS011;61997;53.974;11.670;2022-07-26T00:07:08;6.53;;;3.50;;
73693;SDS011;61997;53.974;11.670;2022-07-26T00:09:34;6.60;;;3.58;;
73693;SDS011;61997;53.974;11.670;2022-07-26T00:11:59;4.72;;;3.65;;
73693;SDS011;61997;53.974;11.670;2022-07-26T00:14:25;5.53;;;4.15;;
73693;SDS011;61997;53.974;11.670;2022-07-26T00:16:50;5.55;;;3.22;;
73693;SDS011;61997;53.974;11.670;2022-07-26T00:19:15;6.47;;;3.65;;
73693;SDS011;61997;53.974;11.670;2022-07-26T00:21:41;7.00;;;3.80;;
73693;SDS011;61997;53.974;11.670;2022-07-26T00:24:06;4.90;;;3.20;;
73693;SDS011;61997;53.974;11.670;2022-07-26T00:26:32;7.18;;;3.50;;
73693;SDS011;61997;53.974;11.670;2022-07-26T00:28:58;7.28;;;3.78;;
73693;SDS011;61997;53.974;11.670;2022-07-26T00:31:24;5.72;;;3.40;;
73693;SDS011;61997;53.974;11.670;2022-07-26T00:33:49;7.32;;;3.85;;
73693;SDS011;61997;53.974;11.670;2022-07-26T00:36:15;6.28;;;3.63;;
73693;SDS011;61997;53.974;11.670;2022-07-26T00:38:41;5.13;;;3.33;;
73693;SDS011;61997;53.974;11.670;2022-07-26T00:41:08;5.32;;;3.55;;
73693;SDS011;61997;53.974;11.670;2022-07-26T00:43:33;5.63;;;3.22;;
73693;SDS011;61997;53.974;11.670;2022-07-26T00:45:59;5.90;;;3.67;;
73693;SDS011;61997;53.974;11.670;2022-07-26T00:48:24;5.22;;;3.30;;
73693;SDS011;61997;53.974;11.670;2022-07-26T00:50:51;5.85;;;3.13;;
73693;SDS011;61997;53.974;11.670;2022-07-26T00:53:18;7.15;;;3.22;;
73693;SDS011;61997;53.974;11.670;2022-07-26T00:55:50;5.82;;;3.45;;
73693;SDS011;61997;53.974;11.670;2022-07-26T00:58:16;4.63;;;3.63;;
73693;SDS011;61997;53.974;11.670;2022-07-26T01:00:42;5.10;;;3.38;;
73693;SDS011;61997;53.974;11.670;2022-07-26T01:03:08;4.63;;;3.33;;
73693;SDS011;61997;53.974;11.670;2022-07-26T01:05:33;5.20;;;3.17;;
73693;SDS011;61997;53.974;11.670;2022-07-26T01:07:59;4.03;;;3.03;;
73693;SDS011;61997;53.974;11.670;2022-07-26T01:10:25;5.10;;;3.13;;
73693;SDS011;61997;53.974;11.670;2022-07-26T01:12:50;5.82;;;3.05;;
73693;SDS011;61997;53.974;11.670;2022-07-26T01:15:16;6.63;;;3.25;;
73693;SDS011;61997;53.974;11.670;2022-07-26T01:17:45;4.72;;;3.30;;
73693;SDS011;61997;53.974;11.670;2022-07-26T01:20:12;4.03;;;2.70;;
73693;SDS011;61997;53.974;11.670;2022-07-26T01:22:39;6.10;;;3.03;;
73693;SDS011;61997;53.974;11.670;2022-07-26T01:25:04;6.65;;;3.00;;
73693;SDS011;61997;53.974;11.670;2022-07-26T01:27:30;6.65;;;3.15;;
73693;SDS011;61997;53.974;11.670;2022-07-26T01:29:56;5.30;;;2.95;;
73693;SDS011;61997;53.974;11.670;2022-07-26T01:32:21;5.00;;;2.75;;
73693;SDS011;61997;53.974;11.670;2022-07-26T01:34:46;5.20;;;3.13;;
73693;SDS011;61997;53.974;11.670;2022-07-26T01:37:12;5.70;;;2.95;;
73693;SDS011;61997;53.974;11.670;2022-07-26T01:39:38;4.93;;;2.83;;
73693;SDS011;61997;53.974;11.670;2022-07-26T01:42:03;6.15;;;3.50;;
73693;SDS011;61997;53.974;11.670;2022-07-26T01:44:29;4.15;;;2.80;;
73693;SDS011;61997;53.974;11.670;2022-07-26T01:46:54;3.95;;;3.00;;
73693;SDS011;61997;53.974;11.670;2022-07-26T01:49:20;4.40;;;2.70;;
73693;SDS011;61997;53.974;11.670;2022-07-26T01:51:45;5.15;;;3.00;;
73693;SDS011;61997;53.974;11.670;2022-07-26T01:54:10;5.65;;;3.33;;
73693;SDS011;61997;53.974;11.670;2022-07-26T01:56:36;6.10;;;2.85;;
73693;SDS011;61997;53.974;11.670;2022-07-26T01:59:02;4.95;;;2.90;;
73693;SDS011;61997;53.974;11.670;2022-07-26T02:01:27;4.57;;;2.72;;
73693;SDS011;61997;53.974;11.670;2022-07-26T02:03:52;5.18;;;3.25;;
73693;SDS011;61997;53.974;11.670;2022-07-26T02:06:18;4.28;;;2.78;;
73693;SDS011;61997;53.974;11.670;2022-07-26T02:08:43;5.95;;;3.30;;
73693;SDS011;61997;53.974;11.670;2022-07-26T02:11:09;4.90;;;3.20;;
73693;SDS011;61997;53.974;11.670;2022-07-26T02:13:35;8.10;;;3.70;;
73693;SDS011;61997;53.974;11.670;2022-07-26T02:16:02;4.05;;;3.10;;
73693;SDS011;61997;53.974;11.670;2022-07-26T02:18:29;4.00;;;2.80;;
73693;SDS011;61997;53.974;11.670;2022-07-26T02:20:55;7.57;;;3.47;;
73693;SDS011;61997;53.974;11.670;2022-07-26T02:23:22;5.65;;;3.05;;
73693;SDS011;61997;53.974;11.670;2022-07-26T02:25:47;4.80;;;3.20;;
73693;SDS011;61997;53.974;11.670;2022-07-26T02:28:14;5.22;;;2.80;;
73693;SDS011;61997;53.974;11.670;2022-07-26T02:30:41;5.90;;;2.90;;
73693;SDS011;61997;53.974;11.670;2022-07-26T02:33:07;5.70;;;3.45;;
73693;SDS011;61997;53.974;11.670;2022-07-26T02:35:32;5.30;;;2.90;;
73693;SDS011;61997;53.974;11.670;2022-07-26T02:38:02;5.50;;;2.90;;
73693;SDS011;61997;53.974;11.670;2022-07-26T02:40:28;5.97;;;3.20;;
73693;SDS011;61997;53.974;11.670;2022-07-26T02:42:54;4.80;;;2.88;;
73693;SDS011;61997;53.974;11.670;2022-07-26T02:45:19;3.95;;;2.83;;
73693;SDS011;61997;53.974;11.670;2022-07-26T02:47:45;5.95;;;3.47;;
73693;SDS011;61997;53.974;11.670;2022-07-26T02:50:15;5.63;;;2.65;;
73693;SDS011;61997;53.974;11.670;2022-07-26T02:52:42;4.57;;;2.92;;
73693;SDS011;61997;53.974;11.670;2022-07-26T02:55:07;4.03;;;3.00;;
73693;SDS011;61997;53.974;11.670;2022-07-26T02:57:33;3.85;;;2.83;;
73693;SDS011;61997;53.974;11.670;2022-07-26T02:59:58;4.78;;;3.00;;
73693;SDS011;61997;53.974;11.670;2022-07-26T03:02:23;4.32;;;2.70;;
73693;SDS011;61997;53.974;11.670;2022-07-26T03:04:49;4.85;;;2.88;;
73693;SDS011;61997;53.974;11.670;2022-07-26T03:07:14;4.93;;;2.85;;
73693;SDS011;61997;53.974;11.670;2022-07-26T03:09:40;6.45;;;2.90;;
73693;SDS011;61997;53.974;11.670;2022-07-26T03:12:05;4.45;;;2.33;;
73693;SDS011;61997;53.974;11.670;2022-07-26T03:14:31;4.18;;;2.63;;
73693;SDS011;61997;53.974;11.670;2022-07-26T03:16:56;4.03;;;2.40;;
73693;SDS011;61997;53.974;11.670;2022-07-26T03:19:21;4.72;;;2.70;;
73693;SDS011;61997;53.974;11.670;2022-07-26T03:21:47;4.43;;;2.53;;
73693;SDS011;61997;53.974;11.670;2022-07-26T03:24:12;3.72;;;2.50;;
73693;SDS011;61997;53.974;11.670;2022-07-26T03:26:37;3.40;;;2.30;;
73693;SDS011;61997;53.974;11.670;2022-07-26T03:29:03;3.75;;;2.40;;
73693;SDS011;61997;53.974;11.670;2022-07-26T03:31:28;6.15;;;2.33;;
73693;SDS011;61997;53.974;11.670;2022-07-26T03:33:53;5.25;;;2.63;;
73693;SDS011;61997;53.974;11.670;2022-07-26T03:36:19;4.35;;;2.40;;
73693;SDS011;61997;53.974;11.670;2022-07-26T03:38:44;3.60;;;2.40;;
73693;SDS011;61997;53.974;11.670;2022-07-26T03:41:10;4.50;;;2.53;;
73693;SDS011;61997;53.974;11.670;2022-07-26T03:43:35;5.05;;;2.60;;
73693;SDS011;61997;53.974;11.670;2022-07-26T03:46:01;3.83;;;2.08;;
73693;SDS011;61997;53.974;11.670;2022-07-26T03:48:29;4.43;;;2.50;;
73693;SDS011;61997;53.974;11.670;2022-07-26T03:50:54;4.88;;;2.50;;
73693;SDS011;61997;53.974;11.670;2022-07-26T03:53:20;4.45;;;2.45;;
73693;SDS011;61997;53.974;11.670;2022-07-26T03:55:45;5.82;;;2.40;;
73693;SDS011;61997;53.974;11.670;2022-07-26T03:58:29;4.18;;;2.30;;
73693;SDS011;61997;53.974;11.670;2022-07-26T04:00:55;4.43;;;2.47;;
73693;SDS011;61997;53.974;11.670;2022-07-26T04:03:20;3.92;;;2.10;;
73693;SDS011;61997;53.974;11.670;2022-07-26T04:05:46;5.05;;;2.42;;
73693;SDS011;61997;53.974;11.670;2022-07-26T04:08:12;3.75;;;2.42;;
73693;SDS011;61997;53.974;11.670;2022-07-26T04:10:37;4.85;;;2.47;;
73693;SDS011;61997;53.974;11.670;2022-07-26T04:13:02;4.10;;;2.08;;
73693;SDS011;61997;53.974;11.670;2022-07-26T04:15:28;3.45;;;2.22;;
73693;SDS011;61997;53.974;11.670;2022-07-26T04:17:53;3.45;;;1.92;;
73693;SDS011;61997;53.974;11.670;2022-07-26T04:20:18;3.60;;;2.35;;
73693;SDS011;61997;53.974;11.670;2022-07-26T04:22:44;3.78;;;2.40;;
73693;SDS011;61997;53.974;11.670;2022-07-26T04:25:09;3.28;;;1.90;;
73693;SDS011;61997;53.974;11.670;2022-07-26T04:27:35;4.80;;;2.25;;
73693;SDS011;61997;53.974;11.670;2022-07-26T04:30:02;4.32;;;2.45;;
73693;SDS011;61997;53.974;11.670;2022-07-26T04:32:28;3.28;;;2.20;;
73693;SDS011;61997;53.974;11.670;2022-07-26T04:34:53;2.50;;;1.67;;
73693;SDS011;61997;53.974;11.670;2022-07-26T04:37:19;3.67;;;1.67;;
73693;SDS011;61997;53.974;11.670;2022-07-26T04:39:45;2.88;;;1.90;;
73693;SDS011;61997;53.974;11.670;2022-07-26T04:42:10;3.05;;;1.60;;
73693;SDS011;61997;53.974;11.670;2022-07-26T04:44:36;3.13;;;1.77;;
73693;SDS011;61997;53.974;11.670;2022-07-26T04:47:02;2.80;;;1.80;;
73693;SDS011;61997;53.974;11.670;2022-07-26T04:49:27;3.70;;;2.00;;
73693;SDS011;61997;53.974;11.670;2022-07-26T04:51:53;2.50;;;1.80;;
73693;SDS011;61997;53.974;11.670;2022-07-26T04:54:18;3.30;;;1.80;;
73693;SDS011;61997;53.974;11.670;2022-07-26T04:56:46;5.13;;;1.98;;
73693;SDS011;61997;53.974;11.670;2022-07-26T04:59:12;4.55;;;2.03;;
73693;SDS011;61997;53.974;11.670;2022-07-26T05:01:37;3.67;;;1.85;;
73693;SDS011;61997;53.974;11.670;2022-07-26T05:04:03;3.03;;;2.00;;
73693;SDS011;61997;53.974;11.670;2022-07-26T05:06:28;3.40;;;2.13;;
73693;SDS011;61997;53.974;11.670;2022-07-26T05:08:56;3.40;;;2.20;;
73693;SDS011;61997;53.974;11.670;2022-07-26T05:11:21;2.40;;;1.55;;
73693;SDS011;61997;53.974;11.670;2022-07-26T05:13:46;3.95;;;2.25;;
73693;SDS011;61997;53.974;11.670;2022-07-26T05:16:12;2.92;;;2.00;;
73693;SDS011;61997;53.974;11.670;2022-07-26T05:18:37;3.05;;;2.25;;
73693;SDS011;61997;53.974;11.670;2022-07-26T05:21:03;4.28;;;2.05;;
73693;SDS011;61997;53.974;11.670;2022-07-26T05:23:28;3.33;;;1.98;;
73693;SDS011;61997;53.974;11.670;2022-07-26T05:25:53;3.42;;;2.35;;
73693;SDS011;61997;53.974;11.670;2022-07-26T05:28:20;2.67;;;1.90;;
73693;SDS011;61997;53.974;11.670;2022-07-26T05:30:45;4.78;;;2.13;;
73693;SDS011;61997;53.974;11.670;2022-07-26T05:33:11;3.88;;;2.33;;
73693;SDS011;61997;53.974;11.670;2022-07-26T05:35:36;3.70;;;1.92;;
73693;SDS011;61997;53.974;11.670;2022-07-26T05:38:01;3.80;;;2.10;;
73693;SDS011;61997;53.974;11.670;2022-07-26T05:40:27;2.90;;;1.77;;
73693;SDS011;61997;53.974;11.670;2022-07-26T05:42:52;2.97;;;2.00;;
73693;SDS011;61997;53.974;11.670;2022-07-26T05:45:17;3.00;;;2.00;;
73693;SDS011;61997;53.974;11.670;2022-07-26T05:47:43;2.83;;;1.70;;
73693;SDS011;61997;53.974;11.670;2022-07-26T05:50:08;3.05;;;1.83;;
73693;SDS011;61997;53.974;11.670;2022-07-26T05:52:34;2.63;;;1.48;;
73693;SDS011;61997;53.974;11.670;2022-07-26T05:54:59;2.42;;;1.70;;
73693;SDS011;61997;53.974;11.670;2022-07-26T05:57:25;2.63;;;1.67;;
73693;SDS011;61997;53.974;11.670;2022-07-26T05:59:50;2.63;;;1.40;;
73693;SDS011;61997;53.974;11.670;2022-07-26T06:02:15;2.58;;;1.52;;
73693;SDS011;61997;53.974;11.670;2022-07-26T06:04:41;2.53;;;1.73;;
73693;SDS011;61997;53.974;11.670;2022-07-26T06:07:06;3.55;;;1.85;;
73693;SDS011;61997;53.974;11.670;2022-07-26T06:09:32;2.55;;;1.65;;
73693;SDS011;61997;53.974;11.670;2022-07-26T06:11:57;3.13;;;1.88;;
73693;SDS011;61997;53.974;11.670;2022-07-26T06:14:22;2.88;;;1.70;;
73693;SDS011;61997;53.974;11.670;2022-07-26T06:16:48;2.50;;;1.70;;
73693;SDS011;61997;53.974;11.670;2022-07-26T06:19:14;3.78;;;2.00;;
73693;SDS011;61997;53.974;11.670;2022-07-26T06:21:39;2.65;;;1.73;;
73693;SDS011;61997;53.974;11.670;2022-07-26T06:24:06;2.78;;;1.83;;
73693;SDS011;61997;53.974;11.670;2022-07-26T06:26:31;2.42;;;1.58;;
73693;SDS011;61997;53.974;11.670;2022-07-26T06:28:57;3.05;;;1.63;;
73693;SDS011;61997;53.974;11.670;2022-07-26T06:31:22;2.75;;;1.80;;
73693;SDS011;61997;53.974;11.670;2022-07-26T06:33:47;2.50;;;1.48;;
73693;SDS011;61997;53.974;11.670;2022-07-26T06:36:13;2.65;;;1.52;;
73693;SDS011;61997;53.974;11.670;2022-07-26T06:38:38;4.85;;;1.80;;
73693;SDS011;61997;53.974;11.670;2022-07-26T06:41:04;3.58;;;2.15;;
73693;SDS011;61997;53.974;11.670;2022-07-26T06:43:29;3.22;;;2.05;;
73693;SDS011;61997;53.974;11.670;2022-07-26T06:45:55;3.05;;;1.80;;
73693;SDS011;61997;53.974;11.670;2022-07-26T06:48:20;3.85;;;2.10;;
73693;SDS011;61997;53.974;11.670;2022-07-26T06:50:46;3.33;;;2.00;;
73693;SDS011;61997;53.974;11.670;2022-07-26T06:53:11;3.17;;;1.90;;
73693;SDS011;61997;53.974;11.670;2022-07-26T06:55:37;5.15;;;1.98;;
73693;SDS011;61997;53.974;11.670;2022-07-26T06:58:02;3.35;;;2.08;;
73693;SDS011;61997;53.974;11.670;2022-07-26T07:00:27;2.58;;;1.85;;
73693;SDS011;61997;53.974;11.670;2022-07-26T07:02:53;3.35;;;1.73;;
73693;SDS011;61997;53.974;11.670;2022-07-26T07:05:18;4.60;;;2.28;;
73693;SDS011;61997;53.974;11.670;2022-07-26T07:07:44;4.40;;;1.65;;
73693;SDS011;61997;53.974;11.670;2022-07-26T07:10:10;2.50;;;1.60;;
73693;SDS011;61997;53.974;11.670;2022-07-26T07:12:36;2.97;;;1.67;;
73693;SDS011;61997;53.974;11.670;2022-07-26T07:15:01;3.53;;;1.75;;
73693;SDS011;61997;53.974;11.670;2022-07-26T07:17:27;4.03;;;1.63;;
73693;SDS011;61997;53.974;11.670;2022-07-26T07:19:52;2.67;;;1.70;;
73693;SDS011;61997;53.974;11.670;2022-07-26T07:22:18;5.28;;;1.98;;
73693;SDS011;61997;53.974;11.670;2022-07-26T07:24:43;3.72;;;1.52;;
73693;SDS011;61997;53.974;11.670;2022-07-26T07:27:09;2.22;;;1.55;;
73693;SDS011;61997;53.974;11.670;2022-07-26T07:29:34;2.85;;;1.70;;
73693;SDS011;61997;53.974;11.670;2022-07-26T07:32:00;4.00;;;1.88;;
73693;SDS011;61997;53.974;11.670;2022-07-26T07:34:25;3.40;;;1.98;;
73693;SDS011;61997;53.974;11.670;2022-07-26T07:36:51;3.38;;;1.40;;
73693;SDS011;61997;53.974;11.670;2022-07-26T07:39:18;5.70;;;1.77;;
73693;SDS011;61997;53.974;11.670;2022-07-26T07:41:45;3.83;;;1.70;;
73693;SDS011;61997;53.974;11.670;2022-07-26T07:44:11;2.88;;;1.80;;
73693;SDS011;61997;53.974;11.670;2022-07-26T07:46:36;3.72;;;1.73;;
73693;SDS011;61997;53.974;11.670;2022-07-26T07:49:02;5.18;;;2.25;;
73693;SDS011;61997;53.974;11.670;2022-07-26T07:51:27;3.88;;;2.10;;
73693;SDS011;61997;53.974;11.670;2022-07-26T07:53:53;3.33;;;2.03;;
73693;SDS011;61997;53.974;11.670;2022-07-26T07:56:19;5.97;;;2.40;;
73693;SDS011;61997;53.974;11.670;2022-07-26T07:58:44;3.40;;;2.30;;
73693;SDS011;61997;53.974;11.670;2022-07-26T08:01:10;3.92;;;2.22;;
73693;SDS011;61997;53.974;11.670;2022-07-26T08:03:36;5.80;;;2.67;;
73693;SDS011;61997;53.974;11.670;2022-07-26T08:06:01;4.47;;;2.55;;
73693;SDS011;61997;53.974;11.670;2022-07-26T08:08:27;4.80;;;2.97;;
73693;SDS011;61997;53.974;11.670;2022-07-26T08:10:53;4.22;;;2.60;;
73693;SDS011;61997;53.974;11.670;2022-07-26T08:13:19;3.35;;;2.35;;
73693;SDS011;61997;53.974;11.670;2022-07-26T08:15:45;4.63;;;2.92;;
73693;SDS011;61997;53.974;11.670;2022-07-26T08:18:11;4.53;;;3.35;;
73693;SDS011;61997;53.974;11.670;2022-07-26T08:20:36;4.63;;;2.85;;
73693;SDS011;61997;53.974;11.670;2022-07-26T08:23:01;6.43;;;2.78;;
73693;SDS011;61997;53.974;11.670;2022-07-26T08:25:27;4.18;;;2.97;;
73693;SDS011;61997;53.974;11.670;2022-07-26T08:27:52;3.88;;;2.67;;
73693;SDS011;61997;53.974;11.670;2022-07-26T08:30:18;5.38;;;2.90;;
73693;SDS011;61997;53.974;11.670;2022-07-26T08:32:43;4.93;;;2.75;;
73693;SDS011;61997;53.974;11.670;2022-07-26T08:35:08;4.00;;;2.47;;
73693;SDS011;61997;53.974;11.670;2022-07-26T08:37:35;4.78;;;2.28;;
73693;SDS011;61997;53.974;11.670;2022-07-26T08:40:01;4.38;;;2.25;;
73693;SDS011;61997;53.974;11.670;2022-07-26T08:42:27;4.93;;;2.22;;
73693;SDS011;61997;53.974;11.670;2022-07-26T08:44:52;3.90;;;2.42;;
73693;SDS011;61997;53.974;11.670;2022-07-26T08:47:18;3.45;;;1.95;;
73693;SDS011;61997;53.974;11.670;2022-07-26T08:49:45;4.93;;;2.28;;
73693;SDS011;61997;53.974;11.670;2022-07-26T08:52:11;4.60;;;2.40;;
73693;SDS011;61997;53.974;11.670;2022-07-26T08:54:43;3.80;;;2.35;;
73693;SDS011;61997;53.974;11.670;2022-07-26T08:57:10;4.07;;;2.10;;
73693;SDS011;61997;53.974;11.670;2022-07-26T08:59:36;3.92;;;2.00;;
73693;SDS011;61997;53.974;11.670;2022-07-26T09:02:06;3.72;;;1.95;;
73693;SDS011;61997;53.974;11.670;2022-07-26T09:04:37;3.65;;;2.20;;
73693;SDS011;61997;53.974;11.670;2022-07-26T09:09:33;3.65;;;2.13;;
73693;SDS011;61997;53.974;11.670;2022-07-26T09:12:11;3.78;;;2.30;;
73693;SDS011;61997;53.974;11.670;2022-07-26T09:14:41;4.70;;;2.13;;
73693;SDS011;61997;53.974;11.670;2022-07-26T09:17:10;3.80;;;2.17;;
73693;SDS011;61997;53.974;11.670;2022-07-26T09:19:36;3.80;;;2.33;;
73693;SDS011;61997;53.974;11.670;2022-07-26T09:22:09;4.53;;;2.58;;
73693;SDS011;61997;53.974;11.670;2022-07-26T09:24:39;3.88;;;2.30;;
73693;SDS011;61997;53.974;11.670;2022-07-26T09:27:13;3.85;;;2.33;;
73693;SDS011;61997;53.974;11.670;2022-07-26T09:29:44;5.47;;;2.65;;
73693;SDS011;61997;53.974;11.670;2022-07-26T09:32:16;4.68;;;2.70;;
73693;SDS011;61997;53.974;11.670;2022-07-26T09:34:45;4.85;;;2.72;;
73693;SDS011;61997;53.974;11.670;2022-07-26T09:37:13;4.53;;;2.72;;
73693;SDS011;61997;53.974;11.670;2022-07-26T09:39:56;4.13;;;2.50;;
73693;SDS011;61997;53.974;11.670;2022-07-26T09:42:27;5.65;;;3.15;;
73693;SDS011;61997;53.974;11.670;2022-07-26T09:44:54;5.43;;;2.60;;
73693;SDS011;61997;53.974;11.670;2022-07-26T09:47:22;4.50;;;2.78;;
73693;SDS011;61997;53.974;11.670;2022-07-26T09:50:13;3.60;;;2.45;;
73693;SDS011;61997;53.974;11.670;2022-07-26T09:53:00;4.72;;;2.53;;
73693;SDS011;61997;53.974;11.670;2022-07-26T09:58:12;3.97;;;2.80;;
73693;SDS011;61997;53.974;11.670;2022-07-26T10:00:43;3.92;;;2.50;;
73693;SDS011;61997;53.974;11.670;2022-07-26T10:03:09;3.97;;;2.55;;
73693;SDS011;61997;53.974;11.670;2022-07-26T10:05:35;4.80;;;2.72;;
73693;SDS011;61997;53.974;11.670;2022-07-26T10:08:02;4.05;;;2.72;;
73693;SDS011;61997;53.974;11.670;2022-07-26T10:10:39;4.88;;;2.88;;
73693;SDS011;61997;53.974;11.670;2022-07-26T10:13:08;4.18;;;2.60;;
73693;SDS011;61997;53.974;11.670;2022-07-26T10:15:36;4.22;;;2.50;;
73693;SDS011;61997;53.974;11.670;2022-07-26T10:18:07;4.50;;;2.70;;
73693;SDS011;61997;53.974;11.670;2022-07-26T10:20:38;4.93;;;2.10;;
73693;SDS011;61997;53.974;11.670;2022-07-26T10:25:57;5.03;;;2.40;;
73693;SDS011;61997;53.974;11.670;2022-07-26T10:28:25;3.55;;;2.15;;
73693;SDS011;61997;53.974;11.670;2022-07-26T10:31:21;3.30;;;2.40;;
73693;SDS011;61997;53.974;11.670;2022-07-26T10:33:46;4.38;;;2.45;;
73693;SDS011;61997;53.974;11.670;2022-07-26T10:36:24;4.50;;;2.10;;
73693;SDS011;61997;53.974;11.670;2022-07-26T10:41:30;5.38;;;2.35;;
73693;SDS011;61997;53.974;11.670;2022-07-26T10:44:13;5.00;;;2.30;;
73693;SDS011;61997;53.974;11.670;2022-07-26T10:47:02;3.10;;;1.90;;
73693;SDS011;61997;53.974;11.670;2022-07-26T10:52:11;3.63;;;2.13;;
73693;SDS011;61997;53.974;11.670;2022-07-26T10:57:22;4.70;;;1.67;;
73693;SDS011;61997;53.974;11.670;2022-07-26T10:59:53;3.50;;;1.80;;
73693;SDS011;61997;53.974;11.670;2022-07-26T11:02:22;3.80;;;1.92;;
73693;SDS011;61997;53.974;11.670;2022-07-26T11:04:48;3.33;;;1.92;;
73693;SDS011;61997;53.974;11.670;2022-07-26T11:07:14;3.45;;;1.80;;
73693;SDS011;61997;53.974;11.670;2022-07-26T11:09:40;3.28;;;1.92;;
73693;SDS011;61997;53.974;11.670;2022-07-26T11:12:17;3.72;;;1.80;;
73693;SDS011;61997;53.974;11.670;2022-07-26T11:14:43;3.15;;;1.92;;
73693;SDS011;61997;53.974;11.670;2022-07-26T11:17:21;3.60;;;1.77;;
73693;SDS011;61997;53.974;11.670;2022-07-26T11:19:48;2.63;;;1.70;;
73693;SDS011;61997;53.974;11.670;2022-07-26T11:22:13;4.22;;;2.33;;
73693;SDS011;61997;53.974;11.670;2022-07-26T11:24:39;3.45;;;2.15;;
73693;SDS011;61997;53.974;11.670;2022-07-26T11:27:08;3.33;;;1.75;;
73693;SDS011;61997;53.974;11.670;2022-07-26T11:29:34;3.72;;;1.83;;
73693;SDS011;61997;53.974;11.670;2022-07-26T11:32:01;2.90;;;1.92;;
73693;SDS011;61997;53.974;11.670;2022-07-26T11:34:28;3.85;;;2.00;;
73693;SDS011;61997;53.974;11.670;2022-07-26T11:36:59;4.85;;;1.90;;
73693;SDS011;61997;53.974;11.670;2022-07-26T11:39:27;4.03;;;2.22;;
73693;SDS011;61997;53.974;11.670;2022-07-26T11:41:59;4.45;;;1.90;;
73693;SDS011;61997;53.974;11.670;2022-07-26T11:44:28;3.97;;;2.20;;
73693;SDS011;61997;53.974;11.670;2022-07-26T11:46:54;3.47;;;2.03;;
73693;SDS011;61997;53.974;11.670;2022-07-26T11:49:29;4.47;;;2.35;;
73693;SDS011;61997;53.974;11.670;2022-07-26T11:51:56;3.70;;;2.20;;
73693;SDS011;61997;53.974;11.670;2022-07-26T11:54:24;6.43;;;2.33;;
73693;SDS011;61997;53.974;11.670;2022-07-26T11:56:54;3.22;;;2.13;;
73693;SDS011;61997;53.974;11.670;2022-07-26T11:59:24;3.55;;;1.88;;
73693;SDS011;61997;53.974;11.670;2022-07-26T12:04:25;3.25;;;1.92;;
73693;SDS011;61997;53.974;11.670;2022-07-26T12:06:52;3.33;;;2.05;;
73693;SDS011;61997;53.974;11.670;2022-07-26T12:09:39;3.60;;;2.05;;
73693;SDS011;61997;53.974;11.670;2022-07-26T12:12:06;3.10;;;1.95;;
73693;SDS011;61997;53.974;11.670;2022-07-26T12:14:37;2.80;;;1.73;;
73693;SDS011;61997;53.974;11.670;2022-07-26T12:17:13;2.72;;;1.80;;
73693;SDS011;61997;53.974;11.670;2022-07-26T12:19:40;4.15;;;2.28;;
73693;SDS011;61997;53.974;11.670;2022-07-26T12:22:10;3.67;;;1.92;;
73693;SDS011;61997;53.974;11.670;2022-07-26T12:27:18;3.97;;;1.83;;
73693;SDS011;61997;53.974;11.670;2022-07-26T12:29:47;2.72;;;1.48;;
73693;SDS011;61997;53.974;11.670;2022-07-26T12:32:29;2.33;;;1.55;;
73693;SDS011;61997;53.974;11.670;2022-07-26T12:35:09;3.35;;;1.88;;
73693;SDS011;61997;53.974;11.670;2022-07-26T12:37:50;3.17;;;1.80;;
73693;SDS011;61997;53.974;11.670;2022-07-26T12:40:27;2.45;;;1.65;;
73693;SDS011;61997;53.974;11.670;2022-07-26T12:42:59;2.47;;;1.70;;
73693;SDS011;61997;53.974;11.670;2022-07-26T12:45:30;4.13;;;2.05;;
73693;SDS011;61997;53.974;11.670;2022-07-26T12:48:08;3.25;;;1.88;;
73693;SDS011;61997;53.974;11.670;2022-07-26T12:50:39;3.40;;;2.00;;
73693;SDS011;61997;53.974;11.670;2022-07-26T12:53:12;3.45;;;1.95;;
73693;SDS011;61997;53.974;11.670;2022-07-26T12:55:41;3.15;;;1.70;;
73693;SDS011;61997;53.974;11.670;2022-07-26T12:58:11;3.45;;;1.73;;
73693;SDS011;61997;53.974;11.670;2022-07-26T13:00:37;3.25;;;1.58;;
73693;SDS011;61997;53.974;11.670;2022-07-26T13:03:03;3.90;;;1.92;;
73693;SDS011;61997;53.974;11.670;2022-07-26T13:05:29;3.00;;;1.80;;
73693;SDS011;61997;53.974;11.670;2022-07-26T13:07:56;3.13;;;1.60;;
73693;SDS011;61997;53.974;11.670;2022-07-26T13:10:25;3.40;;;1.60;;
73693;SDS011;61997;53.974;11.670;2022-07-26T13:12:52;2.28;;;1.40;;
73693;SDS011;61997;53.974;11.670;2022-07-26T13:15:19;3.83;;;1.65;;
73693;SDS011;61997;53.974;11.670;2022-07-26T13:17:46;2.78;;;1.52;;
73693;SDS011;61997;53.974;11.670;2022-07-26T13:20:13;3.90;;;1.83;;
73693;SDS011;61997;53.974;11.670;2022-07-26T13:22:40;3.33;;;1.90;;
73693;SDS011;61997;53.974;11.670;2022-07-26T13:25:07;8.82;;;2.08;;
73693;SDS011;61997;53.974;11.670;2022-07-26T13:27:34;3.28;;;1.50;;
73693;SDS011;61997;53.974;11.670;2022-07-26T13:30:02;3.22;;;1.40;;
73693;SDS011;61997;53.974;11.670;2022-07-26T13:32:29;2.88;;;1.42;;
73693;SDS011;61997;53.974;11.670;2022-07-26T13:34:56;3.30;;;1.23;;
73693;SDS011;61997;53.974;11.670;2022-07-26T13:37:22;2.00;;;1.38;;
73693;SDS011;61997;53.974;11.670;2022-07-26T13:39:49;2.25;;;1.13;;
73693;SDS011;61997;53.974;11.670;2022-07-26T13:42:15;2.20;;;1.30;;
73693;SDS011;61997;53.974;11.670;2022-07-26T13:44:42;3.60;;;1.48;;
73693;SDS011;61997;53.974;11.670;2022-07-26T13:47:09;2.10;;;1.38;;
73693;SDS011;61997;53.974;11.670;2022-07-26T13:49:35;2.53;;;1.40;;
73693;SDS011;61997;53.974;11.670;2022-07-26T13:52:01;2.88;;;1.50;;
73693;SDS011;61997;53.974;11.670;2022-07-26T13:54:28;2.78;;;1.30;;
73693;SDS011;61997;53.974;11.670;2022-07-26T13:57:02;2.35;;;1.20;;
73693;SDS011;61997;53.974;11.670;2022-07-26T13:59:28;3.53;;;1.50;;
73693;SDS011;61997;53.974;11.670;2022-07-26T14:01:54;3.28;;;1.35;;
73693;SDS011;61997;53.974;11.670;2022-07-26T14:04:21;2.78;;;1.40;;
73693;SDS011;61997;53.974;11.670;2022-07-26T14:06:48;2.45;;;1.13;;
73693;SDS011;61997;53.974;11.670;2022-07-26T14:09:14;3.53;;;1.20;;
73693;SDS011;61997;53.974;11.670;2022-07-26T14:11:42;2.70;;;1.45;;
73693;SDS011;61997;53.974;11.670;2022-07-26T14:14:08;2.13;;;1.38;;
73693;SDS011;61997;53.974;11.670;2022-07-26T14:16:35;3.47;;;1.50;;
73693;SDS011;61997;53.974;11.670;2022-07-26T14:19:02;3.30;;;1.70;;
73693;SDS011;61997;53.974;11.670;2022-07-26T14:21:31;2.50;;;1.30;;
73693;SDS011;61997;53.974;11.670;2022-07-26T14:23:58;2.92;;;1.20;;
73693;SDS011;61997;53.974;11.670;2022-07-26T14:26:25;2.90;;;1.33;;
73693;SDS011;61997;53.974;11.670;2022-07-26T14:28:51;3.85;;;1.40;;
73693;SDS011;61997;53.974;11.670;2022-07-26T14:31:18;3.17;;;1.30;;
73693;SDS011;61997;53.974;11.670;2022-07-26T14:33:44;2.63;;;1.30;;
73693;SDS011;61997;53.974;11.670;2022-07-26T14:36:11;2.45;;;1.40;;
73693;SDS011;61997;53.974;11.670;2022-07-26T14:38:40;2.83;;;1.38;;
73693;SDS011;61997;53.974;11.670;2022-07-26T14:41:08;4.00;;;1.30;;
73693;SDS011;61997;53.974;11.670;2022-07-26T14:43:34;2.75;;;1.42;;
73693;SDS011;61997;53.974;11.670;2022-07-26T14:46:02;3.05;;;1.30;;
73693;SDS011;61997;53.974;11.670;2022-07-26T14:48:28;2.70;;;1.35;;
73693;SDS011;61997;53.974;11.670;2022-07-26T14:50:54;2.58;;;1.27;;
73693;SDS011;61997;53.974;11.670;2022-07-26T14:53:21;3.45;;;1.20;;
73693;SDS011;61997;53.974;11.670;2022-07-26T14:55:49;2.55;;;1.20;;